Dow City, IA (51528)

3:23 PM CST on December 22, 2014 (GMT -0600)
Denison Municipal | Change Station
CLOSE
Current Station
Airport
Location: Denison,
Elevation: 1273 ft
Nearby Weather Stations

Elev 1273 ft 41.98 °N, 95.38 °W | Updated 28 minutes ago

Rain
Rain
41 °F
Feels Like 37 °F
N
6
Wind Variable Wind from SE

Today
High -- | Low -- °F
--% Chance of Precip.
Yesterday
High -- | Low -- °F
Precip. -- in
7:46 AM 4:54 PM
New Moon, 1% visible
Pressure 29.40 in
Visibility 3.0 miles
Clouds Few 700 ft
Mostly Cloudy 1200 ft
Mostly Cloudy 1900 ft
Windchill 37 °F
Dew Point 41 °F
Humidity 100%
Rainfall 0.01 in
Snow Depth Not available.
UV 1 out of 12
Pollen .10 out of 12
Air Quality Not available.
Flu Activity Not available.
METAR KDNS 222055Z AUTO 13005KT 3SM -UP FEW007 BKN012 BKN019 05/05 A2940 RMK AO2

More Conditions Fewer Conditions

Pressure 29.40 in
Visibility 3.0 miles
Clouds Few 700 ft
Mostly Cloudy 1200 ft
Mostly Cloudy 1900 ft
Windchill 37 °F
Dew Point 41 °F
Humidity 100%
Rainfall 0.01 in
Snow Depth Not available.
UV 1 out of 12
Pollen .10 out of 12
Air Quality Not available.
Flu Activity Not available.
METAR KDNS 222055Z AUTO 13005KT 3SM -UP FEW007 BKN012 BKN019 05/05 A2940 RMK AO2

More Conditions Fewer Conditions

10-Day Weather Forecast

Almanac

Astronomy

Dec. 22, 2014 Rise Set
Actual Time
Civil Twilight
Nautical Twilight
Astronomical Twilight
Moon
Length of Visible Light
Length of Day
Tomorrow will be .
, % of the Moon is Illuminated

Today's Extremes

State Highs State Lows

Community

WunderPhotos

Upload Photos

1,779,682 photos uploaded!

WunderBlogs® & News

Nearby

Air Quality

  Air Quality AQ Index Pollutant
Not available.

Snow Depth

Station Depth Elevation

Earthquake Activity

City Distance Mag. Time & Date
Minimum magnitude displayed is 2.5.

Coastal Water Temperatures

Place Temperature

Nearby Weather Stations